createdAt,value
2018-07-23T00:00:21.651Z,0.00
2018-07-23T00:01:21.159Z,0.00
2018-07-23T00:03:15.600Z,0.00
2018-07-23T00:04:15.593Z,0.00
2018-07-23T00:06:11.591Z,0.00
2018-07-23T00:07:11.583Z,0.00
2018-07-23T00:09:06.028Z,0.00
2018-07-23T00:10:06.049Z,0.00
2018-07-23T00:12:01.417Z,0.00
2018-07-23T00:13:01.418Z,0.00
2018-07-23T00:14:54.956Z,0.00
2018-07-23T00:15:54.921Z,0.00
2018-07-23T00:17:50.385Z,0.00
2018-07-23T00:18:49.386Z,0.00
2018-07-23T00:20:43.870Z,0.00
2018-07-23T00:21:43.867Z,0.00
2018-07-23T00:23:38.838Z,0.00
2018-07-23T00:24:38.825Z,0.00
2018-07-23T00:26:33.279Z,0.00
2018-07-23T00:27:33.284Z,0.00
2018-07-23T00:29:29.262Z,0.00
2018-07-23T00:30:28.732Z,0.00
2018-07-23T00:32:23.205Z,0.00
2018-07-23T00:33:23.194Z,0.00
2018-07-23T00:35:19.101Z,0.00
2018-07-23T00:36:19.650Z,0.00
2018-07-23T00:38:12.589Z,0.00
2018-07-23T00:39:13.084Z,0.00
2018-07-23T00:41:07.525Z,0.00
2018-07-23T00:42:07.008Z,0.00
2018-07-23T00:44:00.485Z,0.00
2018-07-23T00:45:00.480Z,0.00
2018-07-23T00:46:57.464Z,0.00
2018-07-23T00:47:56.445Z,0.00
2018-07-23T00:49:51.412Z,0.00
2018-07-23T00:50:50.913Z,0.00
2018-07-23T00:52:45.871Z,0.00
2018-07-23T00:53:45.881Z,0.00
2018-07-23T00:55:41.829Z,0.00
2018-07-23T00:56:41.289Z,0.00
2018-07-23T00:58:35.776Z,0.00
2018-07-23T00:59:35.762Z,0.00
2018-07-23T01:01:30.238Z,0.00
2018-07-23T01:02:30.215Z,0.00
2018-07-23T01:04:25.178Z,0.00
2018-07-23T01:05:24.652Z,0.00
2018-07-23T01:07:19.631Z,0.00
2018-07-23T01:08:19.102Z,0.00
2018-07-23T01:10:12.572Z,0.00
2018-07-23T01:11:13.069Z,0.00
2018-07-23T01:13:07.023Z,0.00
2018-07-23T01:14:07.508Z,0.00
2018-07-23T01:16:01.484Z,0.00
2018-07-23T01:17:01.454Z,0.00
2018-07-23T01:18:55.924Z,0.00
2018-07-23T01:19:55.934Z,0.00
2018-07-23T01:21:50.355Z,0.00
2018-07-23T01:22:50.384Z,0.00
2018-07-23T01:24:44.847Z,0.00
2018-07-23T01:25:44.840Z,0.00
2018-07-23T01:27:39.299Z,0.00
2018-07-23T01:28:39.299Z,0.00
2018-07-23T01:30:32.799Z,0.00
2018-07-23T01:31:32.789Z,0.00
2018-07-23T01:33:27.758Z,0.00
2018-07-23T01:34:27.231Z,0.00
2018-07-23T01:36:22.208Z,0.00
2018-07-23T01:37:21.685Z,0.00
2018-07-23T01:39:16.643Z,0.00
2018-07-23T01:40:16.141Z,0.00
2018-07-23T01:42:10.608Z,0.00
2018-07-23T01:43:10.592Z,0.00
2018-07-23T01:45:05.016Z,0.00
2018-07-23T01:46:05.998Z,0.00
2018-07-23T01:47:58.464Z,0.00
2018-07-23T01:48:58.983Z,0.00
2018-07-23T01:50:53.449Z,0.00
2018-07-23T01:51:52.970Z,0.00
2018-07-23T01:53:47.892Z,0.00
2018-07-23T01:54:47.892Z,0.00
2018-07-23T01:56:41.866Z,0.00
2018-07-23T01:57:42.351Z,0.00
2018-07-23T01:59:36.297Z,0.00
2018-07-23T02:00:36.818Z,0.00
2018-07-23T02:02:31.766Z,0.00
2018-07-23T02:03:30.766Z,0.00
2018-07-23T02:05:25.727Z,0.00
2018-07-23T02:06:25.182Z,0.00
2018-07-23T02:08:20.144Z,0.00
2018-07-23T02:09:19.638Z,0.00
2018-07-23T02:11:16.119Z,0.00
2018-07-23T02:12:16.095Z,0.00
2018-07-23T02:14:10.058Z,0.00
2018-07-23T02:15:10.549Z,0.00
2018-07-23T02:17:05.008Z,0.00
2018-07-23T02:18:05.441Z,0.00
2018-07-23T02:19:59.475Z,0.00
2018-07-23T02:20:59.453Z,0.00
2018-07-23T02:22:53.412Z,0.00
2018-07-23T02:23:53.908Z,0.00
2018-07-23T02:25:49.369Z,0.00
2018-07-23T02:26:50.860Z,0.00
2018-07-23T02:28:43.784Z,0.00
2018-07-23T02:29:43.777Z,0.00
2018-07-23T02:31:38.253Z,0.00
2018-07-23T02:32:38.244Z,0.00
2018-07-23T02:34:33.207Z,0.00
2018-07-23T02:35:32.688Z,0.00
2018-07-23T02:37:26.140Z,0.00
2018-07-23T02:38:26.143Z,0.00
2018-07-23T02:40:20.595Z,0.00
2018-07-23T02:41:20.598Z,0.00
2018-07-23T02:43:15.563Z,0.00
2018-07-23T02:44:15.560Z,0.00
2018-07-23T02:46:09.022Z,0.00
2018-07-23T02:47:08.498Z,0.00
2018-07-23T02:49:01.980Z,0.00
2018-07-23T02:50:02.457Z,0.00
2018-07-23T02:51:56.920Z,0.00
2018-07-23T02:52:56.404Z,0.00
2018-07-23T02:54:51.361Z,0.00
2018-07-23T02:55:50.822Z,0.00
2018-07-23T02:57:45.811Z,0.00
2018-07-23T02:58:45.300Z,0.00
2018-07-23T03:00:38.767Z,0.00
2018-07-23T03:01:38.755Z,0.00
2018-07-23T03:03:33.720Z,0.00
2018-07-23T03:04:33.189Z,0.00
2018-07-23T03:06:26.644Z,0.00
2018-07-23T03:07:26.639Z,0.00
2018-07-23T03:09:21.602Z,4.00
2018-07-23T03:10:21.077Z,4.00
2018-07-23T03:12:17.061Z,0.00
2018-07-23T03:13:17.556Z,0.00
2018-07-23T03:15:11.466Z,4.00
2018-07-23T03:16:11.475Z,0.00
2018-07-23T03:18:05.918Z,4.00
2018-07-23T03:19:05.924Z,4.00
2018-07-23T03:21:01.376Z,4.00
2018-07-23T03:22:00.435Z,8.00
2018-07-23T03:23:54.840Z,12.00
2018-07-23T03:24:54.849Z,8.00
2018-07-23T03:26:49.310Z,12.00
2018-07-23T03:27:49.313Z,16.00
2018-07-23T03:29:43.764Z,20.00
2018-07-23T03:30:43.751Z,20.00
2018-07-23T03:32:38.186Z,28.00
2018-07-23T03:33:38.702Z,28.00
2018-07-23T03:35:32.677Z,36.00
2018-07-23T03:36:32.626Z,40.00
2018-07-23T03:38:27.056Z,48.00
2018-07-23T03:39:27.085Z,52.00
2018-07-23T03:41:21.051Z,60.00
2018-07-23T03:42:20.525Z,68.00
2018-07-23T03:44:14.983Z,76.00
2018-07-23T03:45:14.992Z,80.00
2018-07-23T03:47:08.936Z,92.00
2018-07-23T03:48:08.429Z,100.00
2018-07-23T03:50:01.868Z,112.00
2018-07-23T03:51:02.391Z,124.00
2018-07-23T03:52:56.350Z,140.00
2018-07-23T03:53:56.341Z,152.00
2018-07-23T03:55:51.786Z,172.00
2018-07-23T03:56:50.774Z,188.00
2018-07-23T03:58:45.224Z,216.00
2018-07-23T03:59:45.737Z,232.00
2018-07-23T04:01:39.662Z,264.00
2018-07-23T04:02:40.217Z,284.00
2018-07-23T04:04:34.637Z,316.00
2018-07-23T04:05:34.641Z,332.00
2018-07-23T04:07:28.591Z,368.00
2018-07-23T04:08:28.587Z,384.00
2018-07-23T04:10:23.042Z,420.00
2018-07-23T04:11:23.038Z,436.00
2018-07-23T04:13:17.522Z,468.00
2018-07-23T04:14:17.504Z,484.00
2018-07-23T04:16:11.939Z,516.00
2018-07-23T04:17:11.964Z,532.00
2018-07-23T04:19:07.925Z,560.00
2018-07-23T04:20:06.405Z,576.00
2018-07-23T04:22:00.869Z,608.00
2018-07-23T04:23:00.368Z,632.00
2018-07-23T04:24:54.804Z,684.00
2018-07-23T04:25:54.269Z,724.00
2018-07-23T04:27:48.739Z,788.00
2018-07-23T04:28:48.732Z,824.00
2018-07-23T04:30:43.697Z,908.00
2018-07-23T04:31:43.199Z,956.00
2018-07-23T04:33:37.658Z,1056.00
2018-07-23T04:34:37.639Z,1112.00
2018-07-23T04:36:34.093Z,1228.00
2018-07-23T04:37:33.607Z,1288.00
2018-07-23T04:39:29.566Z,1384.00
2018-07-23T04:40:29.556Z,1416.00
2018-07-23T04:42:25.075Z,1436.00
2018-07-23T04:43:24.038Z,1444.00
2018-07-23T04:45:18.514Z,1480.00
2018-07-23T04:46:18.470Z,1516.00
2018-07-23T04:48:13.418Z,1600.00
2018-07-23T04:49:12.968Z,1656.00
2018-07-23T04:51:06.898Z,1776.00
2018-07-23T04:52:06.369Z,1856.00
2018-07-23T04:54:02.319Z,2080.00
2018-07-23T04:55:02.337Z,2292.00
2018-07-23T04:56:56.834Z,2328.00
2018-07-23T04:57:56.789Z,2312.00
2018-07-23T04:59:52.236Z,2288.00
2018-07-23T05:00:51.750Z,2280.00
2018-07-23T05:02:45.712Z,2292.00
2018-07-23T05:03:45.688Z,2324.00
2018-07-23T05:05:41.621Z,2400.00
2018-07-23T05:06:41.608Z,2432.00
2018-07-23T05:08:36.634Z,2508.00
2018-07-23T05:09:36.068Z,2540.00
2018-07-23T05:11:33.519Z,2616.00
2018-07-23T05:12:32.527Z,2672.00
2018-07-23T05:14:25.970Z,2820.00
2018-07-23T05:15:25.460Z,2892.00
2018-07-23T05:17:20.438Z,3056.00
2018-07-23T05:18:19.934Z,3112.00
2018-07-23T05:20:15.864Z,3128.00
2018-07-23T05:21:16.385Z,3068.00
2018-07-23T05:23:10.348Z,2972.00
2018-07-23T05:24:10.334Z,2964.00
2018-07-23T05:26:06.311Z,2960.00
2018-07-23T05:27:04.793Z,2968.00
2018-07-23T05:28:59.267Z,2968.00
2018-07-23T05:29:59.259Z,2976.00
2018-07-23T05:31:53.747Z,3012.00
2018-07-23T05:32:53.745Z,3028.00
2018-07-23T05:34:47.225Z,3080.00
2018-07-23T05:35:47.168Z,3124.00
2018-07-23T05:37:40.618Z,3328.00
2018-07-23T05:38:40.740Z,3440.00
2018-07-23T05:40:34.575Z,3836.00
2018-07-23T05:41:34.566Z,4132.00
2018-07-23T05:43:28.536Z,4552.00
2018-07-23T05:44:28.519Z,4828.00
2018-07-23T05:46:23.477Z,5324.00
2018-07-23T05:47:23.901Z,5516.00
2018-07-23T05:49:18.388Z,5304.00
2018-07-23T05:50:17.449Z,5068.00
2018-07-23T05:52:13.444Z,4816.00
2018-07-23T05:53:13.446Z,4592.00
2018-07-23T05:55:08.906Z,4136.00
2018-07-23T05:56:07.865Z,3828.00
2018-07-23T05:58:02.340Z,3984.00
2018-07-23T05:59:02.335Z,3588.00
2018-07-23T06:00:57.316Z,3452.00
2018-07-23T06:01:56.796Z,3336.00
2018-07-23T06:03:51.270Z,3224.00
2018-07-23T06:04:51.281Z,3248.00
2018-07-23T06:06:47.222Z,3276.00
2018-07-23T06:07:45.739Z,3264.00
2018-07-23T06:09:39.189Z,3360.00
2018-07-23T06:10:39.707Z,3336.00
2018-07-23T06:12:35.141Z,3292.00
2018-07-23T06:13:35.731Z,3380.00
2018-07-23T06:15:28.610Z,3640.00
2018-07-23T06:16:29.124Z,3632.00
2018-07-23T06:18:23.073Z,3656.00
2018-07-23T06:19:23.060Z,3564.00
2018-07-23T06:21:17.496Z,3592.00
2018-07-23T06:22:17.522Z,3700.00
2018-07-23T06:24:11.995Z,3824.00
2018-07-23T06:25:11.983Z,3784.00
2018-07-23T06:27:06.947Z,3836.00
2018-07-23T06:28:06.457Z,3816.00
2018-07-23T06:30:03.482Z,3828.00
2018-07-23T06:31:01.408Z,3996.00
2018-07-23T06:32:55.866Z,4192.00
2018-07-23T06:33:55.459Z,4080.00
2018-07-23T06:35:49.852Z,3732.00
2018-07-23T06:36:49.862Z,3772.00
2018-07-23T06:38:45.811Z,3980.00
2018-07-23T06:39:45.816Z,4172.00
2018-07-23T06:41:40.786Z,4464.00
2018-07-23T06:42:40.296Z,4496.00
2018-07-23T06:44:35.228Z,4500.00
2018-07-23T06:45:34.728Z,4584.00
2018-07-23T06:47:30.685Z,4356.00
2018-07-23T06:48:30.686Z,4336.00
2018-07-23T06:50:25.145Z,4588.00
2018-07-23T06:51:25.158Z,4688.00
2018-07-23T06:53:19.624Z,4536.00
2018-07-23T06:54:19.618Z,4388.00
2018-07-23T06:56:15.077Z,4312.00
2018-07-23T06:57:15.106Z,4380.00
2018-07-23T06:59:08.585Z,4624.00
2018-07-23T07:00:08.545Z,4792.00
2018-07-23T07:02:03.021Z,5368.00
2018-07-23T07:03:03.032Z,5464.00
2018-07-23T07:04:58.953Z,5320.00
2018-07-23T07:05:58.941Z,5260.00
2018-07-23T07:07:54.899Z,5236.00
2018-07-23T07:08:53.406Z,5332.00
2018-07-23T07:10:48.428Z,5712.00
2018-07-23T07:11:47.875Z,6028.00
2018-07-23T07:13:42.852Z,6388.00
2018-07-23T07:14:43.337Z,6184.00
2018-07-23T07:16:38.296Z,6064.00
2018-07-23T07:17:38.326Z,5960.00
2018-07-23T07:19:34.266Z,6228.00
2018-07-23T07:20:34.287Z,6112.00
2018-07-23T07:22:32.227Z,6144.00
2018-07-23T07:23:30.731Z,5912.00
2018-07-23T07:25:24.809Z,5956.00
2018-07-23T07:26:25.190Z,5828.00
2018-07-23T07:28:21.130Z,5828.00
2018-07-23T07:29:20.645Z,4968.00
2018-07-23T07:31:16.632Z,4068.00
2018-07-23T07:32:16.620Z,3548.00
2018-07-23T07:34:10.082Z,3152.00
2018-07-23T07:35:10.080Z,3040.00
2018-07-23T07:37:07.043Z,3288.00
2018-07-23T07:38:06.098Z,3384.00
2018-07-23T07:40:02.525Z,3852.00
2018-07-23T07:41:01.995Z,4148.00
2018-07-23T07:42:56.955Z,5148.00
2018-07-23T07:43:56.957Z,5484.00
2018-07-23T07:45:51.925Z,5556.00
2018-07-23T07:46:50.937Z,5444.00
2018-07-23T07:48:45.459Z,5628.00
2018-07-23T07:49:45.407Z,5792.00
2018-07-23T07:51:41.351Z,5508.00
2018-07-23T07:52:41.371Z,5140.00
2018-07-23T07:54:37.362Z,4664.00
2018-07-23T07:55:37.336Z,4752.00
2018-07-23T07:57:32.313Z,4936.00
2018-07-23T07:58:31.825Z,4920.00
2018-07-23T08:00:27.276Z,4988.00
2018-07-23T08:01:26.297Z,4628.00
2018-07-23T08:03:19.755Z,4068.00
2018-07-23T08:04:19.763Z,4148.00
2018-07-23T08:06:16.715Z,4188.00
2018-07-23T08:07:14.222Z,4216.00
2018-07-23T08:09:08.695Z,4232.00
2018-07-23T08:10:08.668Z,4244.00
2018-07-23T08:12:06.141Z,4112.00
2018-07-23T08:13:04.656Z,3948.00
2018-07-23T08:14:59.092Z,4136.00
2018-07-23T08:15:59.142Z,4464.00
2018-07-23T08:17:54.101Z,5596.00
2018-07-23T08:18:54.547Z,6556.00
2018-07-23T08:20:48.032Z,8312.00
2018-07-23T08:21:48.020Z,8612.00
2018-07-23T08:23:41.999Z,7700.00
2018-07-23T08:24:41.498Z,7600.00
2018-07-23T08:26:37.487Z,7076.00
2018-07-23T08:27:37.467Z,6652.00
2018-07-23T08:29:34.426Z,6948.00
2018-07-23T08:30:33.444Z,6588.00
2018-07-23T08:32:29.408Z,5860.00
2018-07-23T08:33:29.410Z,5528.00
2018-07-23T08:35:23.848Z,6244.00
2018-07-23T08:36:23.863Z,6752.00
2018-07-23T08:38:19.320Z,6040.00
2018-07-23T08:39:19.339Z,5396.00
2018-07-23T08:41:11.839Z,5332.00
2018-07-23T08:42:11.811Z,5760.00
2018-07-23T08:44:06.271Z,5984.00
2018-07-23T08:45:06.334Z,6576.00
2018-07-23T08:47:01.255Z,7112.00
2018-07-23T08:48:00.746Z,6712.00
2018-07-23T08:49:55.703Z,6272.00
2018-07-23T08:50:56.212Z,6144.00
2018-07-23T08:52:49.193Z,5356.00
2018-07-23T08:53:48.678Z,5136.00
2018-07-23T08:55:45.133Z,5052.00
2018-07-23T08:56:44.633Z,5328.00
2018-07-23T08:58:39.082Z,6120.00
2018-07-23T08:59:40.083Z,6112.00
2018-07-23T09:01:35.566Z,6024.00
2018-07-23T09:02:35.052Z,5580.00
2018-07-23T09:04:30.018Z,4984.00
2018-07-23T09:05:29.527Z,4748.00
2018-07-23T09:07:24.014Z,4180.00
2018-07-23T09:08:24.039Z,3868.00
2018-07-23T09:10:20.953Z,3576.00
2018-07-23T09:11:19.947Z,3380.00
2018-07-23T09:13:14.425Z,3996.00
2018-07-23T09:14:14.424Z,4164.00
2018-07-23T09:16:08.400Z,4468.00
2018-07-23T09:17:08.449Z,4756.00
2018-07-23T09:19:02.381Z,5688.00
2018-07-23T09:20:02.354Z,6220.00
2018-07-23T09:21:56.824Z,6444.00
2018-07-23T09:22:59.811Z,6392.00
2018-07-23T09:24:52.211Z,6368.00
2018-07-23T09:25:51.798Z,5976.00
2018-07-23T09:27:45.723Z,5212.00
2018-07-23T09:28:46.720Z,5048.00
2018-07-23T09:30:40.203Z,6472.00
2018-07-23T09:31:40.206Z,6944.00
2018-07-23T09:33:33.679Z,7848.00
2018-07-23T09:34:34.673Z,8032.00
2018-07-23T09:36:29.655Z,7504.00
2018-07-23T09:37:29.659Z,7244.00
2018-07-23T09:39:23.132Z,6656.00
2018-07-23T09:40:23.618Z,6712.00
2018-07-23T09:42:18.595Z,7232.00
2018-07-23T09:43:17.577Z,7800.00
2018-07-23T09:45:12.055Z,8232.00
2018-07-23T09:46:12.552Z,8644.00
2018-07-23T09:48:06.507Z,7644.00
2018-07-23T09:49:06.001Z,6940.00
2018-07-23T09:50:59.968Z,5636.00
2018-07-23T09:51:59.952Z,5392.00
2018-07-23T09:53:54.424Z,5652.00
2018-07-23T09:54:55.413Z,5940.00
2018-07-23T09:56:51.392Z,5028.00
2018-07-23T09:57:50.381Z,4508.00
2018-07-23T09:59:46.867Z,4628.00
2018-07-23T10:00:46.387Z,4656.00
2018-07-23T10:02:39.830Z,4176.00
2018-07-23T10:03:39.879Z,4484.00
2018-07-23T10:05:34.816Z,4708.00
2018-07-23T10:06:34.311Z,4624.00
2018-07-23T10:08:28.773Z,5044.00
2018-07-23T10:09:28.776Z,5340.00
2018-07-23T10:11:23.250Z,6136.00
2018-07-23T10:12:23.247Z,6996.00
2018-07-23T10:14:18.213Z,8820.00
2018-07-23T10:15:17.710Z,9176.00
2018-07-23T10:17:13.694Z,7216.00
2018-07-23T10:18:13.673Z,6624.00
2018-07-23T10:20:06.658Z,6372.00
2018-07-23T10:21:06.652Z,5880.00
2018-07-23T10:23:02.610Z,4756.00
2018-07-23T10:24:01.122Z,4500.00
2018-07-23T10:25:56.067Z,4240.00
2018-07-23T10:26:55.565Z,4412.00
2018-07-23T10:28:53.034Z,4596.00
2018-07-23T10:29:51.544Z,4876.00
2018-07-23T10:31:47.563Z,5100.00
2018-07-23T10:32:47.527Z,5296.00
2018-07-23T10:34:40.539Z,5168.00
2018-07-23T10:35:41.502Z,5064.00
2018-07-23T10:37:37.529Z,5672.00
2018-07-23T10:38:36.545Z,6504.00
2018-07-23T10:40:33.015Z,6336.00
2018-07-23T10:41:32.534Z,6008.00
2018-07-23T10:43:27.493Z,5668.00
2018-07-23T10:44:27.018Z,5624.00
2018-07-23T10:46:21.514Z,5460.00
2018-07-23T10:47:22.477Z,5336.00
2018-07-23T10:49:15.957Z,4972.00
2018-07-23T10:50:16.979Z,4800.00
2018-07-23T10:52:10.451Z,4536.00
2018-07-23T10:53:10.445Z,5068.00
2018-07-23T10:55:03.860Z,6764.00
2018-07-23T10:56:03.897Z,7568.00
2018-07-23T10:57:59.343Z,8868.00
2018-07-23T10:58:57.403Z,9232.00
2018-07-23T11:00:54.370Z,8764.00
2018-07-23T11:03:47.849Z,7532.00
2018-07-23T11:04:48.839Z,7812.00
2018-07-23T11:06:42.823Z,7932.00
2018-07-23T11:07:42.343Z,7824.00
2018-07-23T11:09:36.824Z,6952.00
2018-07-23T11:10:36.791Z,6692.00
2018-07-23T11:12:32.758Z,6568.00
2018-07-23T11:13:33.265Z,6688.00
2018-07-23T11:15:27.238Z,7496.00
2018-07-23T11:16:27.193Z,7980.00
2018-07-23T11:18:22.654Z,8572.00
2018-07-23T11:19:21.733Z,8716.00
2018-07-23T11:21:16.113Z,8924.00
2018-07-23T11:22:16.175Z,8260.00
2018-07-23T11:24:11.115Z,7908.00
2018-07-23T11:25:38.811Z,7976.00
2018-07-23T11:27:06.064Z,7852.00
2018-07-23T11:28:05.084Z,7680.00
2018-07-23T11:30:01.099Z,8204.00
2018-07-23T11:31:01.038Z,8580.00
2018-07-23T11:32:56.024Z,9044.00
2018-07-23T11:33:55.508Z,9008.00
2018-07-23T11:35:51.464Z,8484.00
2018-07-23T11:36:51.468Z,8148.00
2018-07-23T11:38:46.938Z,7712.00
2018-07-23T11:39:46.942Z,7796.00
2018-07-23T11:41:40.487Z,8016.00
2018-07-23T11:42:40.501Z,8416.00
2018-07-23T11:44:37.917Z,9444.00
2018-07-23T11:45:36.402Z,9688.00
2018-07-23T11:47:30.884Z,9752.00
2018-07-23T11:48:30.865Z,9640.00
2018-07-23T11:50:27.342Z,9360.00
2018-07-23T11:51:26.843Z,8868.00
2018-07-23T11:53:23.888Z,7852.00
2018-07-23T11:54:22.805Z,7796.00
2018-07-23T11:56:16.289Z,8008.00
2018-07-23T11:57:16.279Z,8220.00
2018-07-23T11:59:11.266Z,8596.00
2018-07-23T12:00:10.767Z,8384.00
2018-07-23T12:02:05.246Z,7808.00
2018-07-23T12:03:05.234Z,7856.00
2018-07-23T12:04:59.226Z,7788.00
2018-07-23T12:05:59.646Z,7844.00
2018-07-23T12:07:55.211Z,8260.00
2018-07-23T12:08:54.747Z,7968.00
2018-07-23T12:10:49.236Z,7380.00
2018-07-23T12:11:50.269Z,7272.00
2018-07-23T12:13:46.208Z,7156.00
2018-07-23T12:14:45.703Z,7136.00
2018-07-23T12:16:41.176Z,7400.00
2018-07-23T12:17:39.697Z,7804.00
2018-07-23T12:19:35.138Z,8512.00
2018-07-23T12:20:35.144Z,8540.00
2018-07-23T12:22:28.624Z,8084.00
2018-07-23T12:23:28.629Z,7864.00
2018-07-23T12:25:24.606Z,8164.00
2018-07-23T12:26:24.565Z,8580.00
2018-07-23T12:28:20.057Z,9904.00
2018-07-23T12:29:19.076Z,9784.00
2018-07-23T12:31:15.529Z,9068.00
2018-07-23T12:32:13.544Z,8816.00
2018-07-23T12:34:08.510Z,8620.00
2018-07-23T12:35:08.022Z,8252.00
2018-07-23T12:37:03.995Z,8176.00
2018-07-23T12:38:04.012Z,8572.00
2018-07-23T12:39:57.569Z,8820.00
2018-07-23T12:40:57.471Z,9112.00
2018-07-23T12:42:50.939Z,9740.00
2018-07-23T12:43:50.949Z,9916.00
2018-07-23T12:45:45.918Z,9964.00
2018-07-23T12:46:45.366Z,9308.00
2018-07-23T12:48:41.872Z,7716.00
2018-07-23T12:49:41.376Z,7072.00
2018-07-23T12:51:36.336Z,6116.00
2018-07-23T12:52:35.848Z,5828.00
2018-07-23T12:54:30.321Z,5520.00
2018-07-23T12:55:30.308Z,5412.00
2018-07-23T12:57:23.794Z,5092.00
2018-07-23T12:58:23.776Z,5040.00
2018-07-23T13:00:18.767Z,5148.00
2018-07-23T13:01:18.239Z,5176.00
2018-07-23T13:03:11.717Z,4952.00
2018-07-23T13:04:11.722Z,4760.00
2018-07-23T13:06:07.688Z,4564.00
2018-07-23T13:07:07.716Z,4476.00
2018-07-23T13:09:02.210Z,4288.00
2018-07-23T13:10:02.197Z,4228.00
2018-07-23T13:11:57.171Z,4184.00
2018-07-23T13:12:57.167Z,4276.00
2018-07-23T13:14:52.653Z,4296.00
2018-07-23T13:15:52.609Z,4340.00
2018-07-23T13:17:49.096Z,4344.00
2018-07-23T13:18:48.591Z,4408.00
2018-07-23T13:20:44.585Z,4412.00
2018-07-23T13:21:46.058Z,4536.00
2018-07-23T13:23:41.055Z,5080.00
2018-07-23T13:24:41.548Z,5492.00
2018-07-23T13:26:36.494Z,6136.00
2018-07-23T13:27:37.506Z,6568.00
2018-07-23T13:29:30.995Z,7556.00
2018-07-23T13:30:30.998Z,7604.00
2018-07-23T13:32:27.003Z,7652.00
2018-07-23T13:33:26.962Z,7720.00
2018-07-23T13:35:22.902Z,8000.00
2018-07-23T13:36:22.911Z,8048.00
2018-07-23T13:38:18.883Z,7804.00
2018-07-23T13:39:19.881Z,7716.00
2018-07-23T13:41:13.380Z,7036.00
2018-07-23T13:42:13.396Z,7356.00
2018-07-23T13:44:09.953Z,7176.00
2018-07-23T13:45:10.364Z,6740.00
2018-07-23T13:47:06.338Z,6272.00
2018-07-23T13:48:06.348Z,6080.00
2018-07-23T13:50:01.331Z,5624.00
2018-07-23T13:51:01.340Z,5828.00
2018-07-23T13:52:56.301Z,6692.00
2018-07-23T13:53:55.827Z,6588.00
2018-07-23T13:55:50.852Z,6336.00
2018-07-23T13:56:51.792Z,6548.00
2018-07-23T13:58:44.734Z,6152.00
2018-07-23T13:59:44.766Z,5744.00
2018-07-23T14:01:40.746Z,5396.00
2018-07-23T14:02:41.745Z,5512.00
2018-07-23T14:04:35.715Z,6092.00
2018-07-23T14:05:35.214Z,6260.00
2018-07-23T14:07:31.215Z,6932.00
2018-07-23T14:08:31.238Z,7416.00
2018-07-23T14:10:25.697Z,7760.00
2018-07-23T14:11:25.695Z,8000.00
2018-07-23T14:13:20.666Z,8528.00
2018-07-23T14:14:20.179Z,8656.00
2018-07-23T14:16:17.640Z,8480.00
2018-07-23T14:17:16.135Z,8656.00
2018-07-23T14:19:12.119Z,8720.00
2018-07-23T14:20:12.107Z,8464.00
2018-07-23T14:22:08.092Z,7884.00
2018-07-23T14:23:08.086Z,7756.00
2018-07-23T14:25:02.512Z,7636.00
2018-07-23T14:26:02.533Z,7600.00
2018-07-23T14:27:57.044Z,7168.00
2018-07-23T14:28:57.004Z,6888.00
2018-07-23T14:30:51.459Z,6164.00
2018-07-23T14:31:51.479Z,5808.00
2018-07-23T14:33:48.436Z,6000.00
2018-07-23T14:34:47.454Z,6716.00
2018-07-23T14:36:43.936Z,7656.00
2018-07-23T14:37:44.865Z,7712.00
2018-07-23T14:39:40.403Z,7152.00
2018-07-23T14:40:40.419Z,6692.00
2018-07-23T14:42:33.924Z,6128.00
2018-07-23T14:43:33.900Z,5232.00
2018-07-23T14:45:29.842Z,5296.00
2018-07-23T14:46:29.847Z,6040.00
2018-07-23T14:48:26.340Z,5864.00
2018-07-23T14:49:25.822Z,5996.00
2018-07-23T14:51:20.805Z,6092.00
2018-07-23T14:52:20.305Z,5884.00
2018-07-23T14:54:17.255Z,6068.00
2018-07-23T14:55:16.280Z,6084.00
2018-07-23T14:57:12.281Z,6648.00
2018-07-23T14:58:12.256Z,6808.00
2018-07-23T15:00:08.235Z,6752.00
2018-07-23T15:01:08.220Z,6640.00
2018-07-23T15:03:04.713Z,6932.00
2018-07-23T15:04:04.205Z,6820.00
2018-07-23T15:06:01.155Z,6224.00
2018-07-23T15:07:00.184Z,6016.00
2018-07-23T15:08:54.630Z,5760.00
2018-07-23T15:09:54.647Z,5744.00
2018-07-23T15:11:49.627Z,6152.00
2018-07-23T15:12:49.132Z,6428.00
2018-07-23T15:14:45.143Z,7012.00
2018-07-23T15:15:46.096Z,7236.00
2018-07-23T15:17:40.112Z,7184.00
2018-07-23T15:18:39.628Z,6932.00
2018-07-23T15:20:35.627Z,6328.00
2018-07-23T15:22:50.068Z,5996.00
2018-07-23T15:23:50.090Z,5844.00
2018-07-23T15:25:47.061Z,5692.00
2018-07-23T15:26:46.067Z,5796.00
2018-07-23T15:28:40.526Z,6360.00
2018-07-23T15:29:40.551Z,6472.00
2018-07-23T15:31:36.541Z,5944.00
2018-07-23T15:32:36.534Z,5452.00
2018-07-23T15:34:31.021Z,5252.00
2018-07-23T15:35:31.026Z,5288.00
2018-07-23T15:37:27.503Z,5120.00
2018-07-23T15:38:25.527Z,5316.00
2018-07-23T15:40:20.486Z,5572.00
2018-07-23T15:41:20.000Z,5300.00
2018-07-23T15:43:15.984Z,4936.00
2018-07-23T15:44:16.145Z,5088.00
2018-07-23T15:46:12.075Z,4692.00
2018-07-23T15:47:12.454Z,4372.00
2018-07-23T15:49:06.448Z,3308.00
2018-07-23T15:50:06.422Z,3056.00
2018-07-23T15:52:00.951Z,3176.00
2018-07-23T15:53:00.900Z,3272.00
2018-07-23T15:54:55.411Z,3436.00
2018-07-23T15:55:55.895Z,3560.00
2018-07-23T15:57:50.809Z,3520.00
2018-07-23T15:58:49.833Z,3404.00
2018-07-23T16:00:45.798Z,3172.00
2018-07-23T16:01:45.806Z,3172.00
2018-07-23T16:03:42.281Z,3256.00
2018-07-23T16:04:41.778Z,3300.00
2018-07-23T16:06:38.755Z,3684.00
2018-07-23T16:07:37.817Z,3828.00
2018-07-23T16:09:33.742Z,3796.00
2018-07-23T16:10:33.761Z,3776.00
2018-07-23T16:12:29.751Z,4396.00
2018-07-23T16:13:29.744Z,4792.00
2018-07-23T16:15:27.203Z,5428.00
2018-07-23T16:16:26.227Z,5584.00
2018-07-23T16:18:21.679Z,5584.00
2018-07-23T16:19:21.684Z,5672.00
2018-07-23T16:21:16.671Z,5336.00
2018-07-23T16:22:16.149Z,5448.00
2018-07-23T16:24:11.136Z,5092.00
2018-07-23T16:25:10.650Z,4796.00
2018-07-23T16:27:07.111Z,3980.00
2018-07-23T16:28:06.621Z,3576.00
2018-07-23T16:30:03.645Z,3216.00
2018-07-23T16:31:02.605Z,3060.00
2018-07-23T16:32:59.107Z,2664.00
2018-07-23T16:33:59.582Z,2480.00
2018-07-23T16:35:55.075Z,2436.00
2018-07-23T16:36:54.585Z,2484.00
2018-07-23T16:38:49.073Z,2588.00
2018-07-23T16:39:49.045Z,2732.00
2018-07-23T16:41:45.013Z,3024.00
2018-07-23T16:42:43.519Z,2948.00
2018-07-23T16:44:39.491Z,2656.00
2018-07-23T16:45:39.510Z,2536.00
2018-07-23T16:47:35.483Z,2352.00
2018-07-23T16:48:35.473Z,2468.00
2018-07-23T16:50:31.458Z,3076.00
2018-07-23T16:51:31.455Z,2824.00
2018-07-23T16:53:27.928Z,3120.00
2018-07-23T16:54:28.428Z,3404.00
2018-07-23T16:56:21.934Z,3104.00
2018-07-23T16:57:21.915Z,2992.00
2018-07-23T16:59:18.889Z,3004.00
2018-07-23T17:00:17.918Z,3240.00
2018-07-23T17:02:13.883Z,5184.00
2018-07-23T17:03:13.925Z,6128.00
2018-07-23T17:05:11.370Z,3820.00
2018-07-23T17:06:09.824Z,3480.00
2018-07-23T17:08:05.809Z,3104.00
2018-07-23T17:09:05.820Z,3100.00
2018-07-23T17:10:59.354Z,3664.00
2018-07-23T17:11:59.778Z,4180.00
2018-07-23T17:13:53.760Z,4408.00
2018-07-23T17:14:54.745Z,4516.00
2018-07-23T17:16:52.248Z,4396.00
2018-07-23T17:17:51.983Z,4336.00
2018-07-23T17:19:46.408Z,4064.00
2018-07-23T17:20:46.423Z,4032.00
2018-07-23T17:22:42.418Z,4116.00
2018-07-23T17:23:43.379Z,4200.00
2018-07-23T17:25:37.351Z,4232.00
2018-07-23T17:26:37.378Z,4228.00
2018-07-23T17:28:33.302Z,4180.00
2018-07-23T17:29:32.798Z,4164.00
2018-07-23T17:31:29.286Z,3720.00
2018-07-23T17:32:29.270Z,3552.00
2018-07-23T17:34:24.713Z,3128.00
2018-07-23T17:35:25.270Z,2860.00
2018-07-23T17:37:20.726Z,2632.00
2018-07-23T17:38:20.709Z,2448.00
2018-07-23T17:40:16.660Z,2176.00
2018-07-23T17:41:16.685Z,2124.00
2018-07-23T17:43:11.666Z,2064.00
2018-07-23T17:44:11.174Z,2008.00
2018-07-23T17:46:05.669Z,2020.00
2018-07-23T17:47:06.654Z,2080.00
2018-07-23T17:49:02.158Z,2064.00
2018-07-23T17:50:02.635Z,1916.00
2018-07-23T17:51:57.631Z,1744.00
2018-07-23T17:52:57.636Z,1696.00
2018-07-23T17:54:53.638Z,1668.00
2018-07-23T17:55:54.126Z,1632.00
2018-07-23T17:57:48.049Z,1636.00
2018-07-23T17:58:48.047Z,1648.00
2018-07-23T18:00:42.537Z,1668.00